createdAt,value
2019-03-25T00:01:02.192Z,65.70
2019-03-25T00:03:30.899Z,67.11
2019-03-25T00:05:59.615Z,67.15
2019-03-25T00:08:28.313Z,67.10
2019-03-25T00:10:57.051Z,66.65
2019-03-25T00:13:25.816Z,66.03
2019-03-25T00:15:56.475Z,59.83
2019-03-25T00:18:25.030Z,62.75
2019-03-25T00:20:53.832Z,64.10
2019-03-25T00:23:22.492Z,67.14
2019-03-25T00:25:51.222Z,63.80
2019-03-25T00:28:19.984Z,66.30
2019-03-25T00:30:48.778Z,60.26
2019-03-25T00:33:17.484Z,65.88
2019-03-25T00:35:46.242Z,64.40
2019-03-25T00:38:15.034Z,65.34
2019-03-25T00:40:43.852Z,65.14
2019-03-25T00:43:12.652Z,64.62
2019-03-25T00:45:41.393Z,64.59
2019-03-25T00:48:10.106Z,64.71
2019-03-25T00:50:38.987Z,65.09
2019-03-25T00:53:07.695Z,64.98
2019-03-25T00:55:36.435Z,56.59
2019-03-25T00:58:05.180Z,64.22
2019-03-25T01:00:34.035Z,62.25
2019-03-25T01:03:02.835Z,65.18
2019-03-25T01:05:31.657Z,64.26
2019-03-25T01:08:00.431Z,63.62
2019-03-25T01:10:29.211Z,62.35
2019-03-25T01:12:57.983Z,55.61
2019-03-25T01:15:26.766Z,63.59
2019-03-25T01:17:55.578Z,62.34
2019-03-25T01:20:24.431Z,61.64
2019-03-25T01:22:53.359Z,57.45
2019-03-25T01:25:22.093Z,63.63
2019-03-25T01:27:50.759Z,54.60
2019-03-25T01:30:19.642Z,62.01
2019-03-25T01:32:48.371Z,61.23
2019-03-25T01:35:17.117Z,62.74
2019-03-25T01:37:45.992Z,62.69
2019-03-25T01:40:14.848Z,62.25
2019-03-25T01:42:43.589Z,61.48
2019-03-25T01:45:12.347Z,62.42
2019-03-25T01:47:41.088Z,62.07
2019-03-25T01:50:10.015Z,61.49
2019-03-25T01:52:38.730Z,60.91
2019-03-25T01:55:13.456Z,55.02
2019-03-25T01:57:38.081Z,61.21
2019-03-25T02:00:07.423Z,60.05
2019-03-25T02:02:36.123Z,60.30
2019-03-25T02:05:04.827Z,60.57
2019-03-25T02:07:33.515Z,60.10
2019-03-25T02:10:02.253Z,59.72
2019-03-25T02:12:30.975Z,61.36
2019-03-25T02:14:59.677Z,60.31
2019-03-25T02:17:28.351Z,60.52
2019-03-25T02:19:57.195Z,58.42
2019-03-25T02:22:26.026Z,60.33
2019-03-25T02:24:54.826Z,58.95
2019-03-25T02:27:23.514Z,56.65
2019-03-25T02:29:52.260Z,61.77
2019-03-25T02:32:21.051Z,61.97
2019-03-25T02:34:49.839Z,57.34
2019-03-25T02:37:18.584Z,61.48
2019-03-25T02:39:47.213Z,61.66
2019-03-25T02:42:16.001Z,62.75
2019-03-25T02:44:44.825Z,66.08
2019-03-25T02:47:13.499Z,66.84
2019-03-25T02:49:42.179Z,67.47
2019-03-25T02:52:10.845Z,67.33
2019-03-25T02:54:39.569Z,63.38
2019-03-25T02:57:08.288Z,67.33
2019-03-25T02:59:36.941Z,68.14
2019-03-25T03:02:05.807Z,65.84
2019-03-25T03:04:34.546Z,60.88
2019-03-25T03:07:03.264Z,68.00
2019-03-25T03:09:32.046Z,68.15
2019-03-25T03:12:00.762Z,62.86
2019-03-25T03:14:29.439Z,69.08
2019-03-25T03:16:58.115Z,67.86
2019-03-25T03:19:26.846Z,67.99
2019-03-25T03:21:55.569Z,67.55
2019-03-25T03:24:24.311Z,60.14
2019-03-25T03:26:53.069Z,60.44
2019-03-25T03:29:21.740Z,65.73
2019-03-25T03:31:50.674Z,66.59
2019-03-25T03:34:19.399Z,65.28
2019-03-25T03:36:48.144Z,64.86
2019-03-25T03:39:16.957Z,65.33
2019-03-25T03:41:45.775Z,67.06
2019-03-25T03:44:14.497Z,66.00
2019-03-25T03:46:43.425Z,66.80
2019-03-25T03:49:12.130Z,66.88
2019-03-25T03:51:40.922Z,66.97
2019-03-25T03:54:09.606Z,67.05
2019-03-25T03:56:38.475Z,65.88
2019-03-25T03:59:07.184Z,65.37
2019-03-25T04:01:35.848Z,63.36
2019-03-25T04:04:04.713Z,70.87
2019-03-25T04:06:33.475Z,67.86
2019-03-25T04:09:02.237Z,69.98
2019-03-25T04:11:30.924Z,72.71
2019-03-25T04:13:59.749Z,69.70
2019-03-25T04:16:28.568Z,73.96
2019-03-25T04:18:57.351Z,68.00
2019-03-25T04:21:26.288Z,73.28
2019-03-25T04:23:55.000Z,74.89
2019-03-25T04:26:29.010Z,74.79
2019-03-25T04:28:54.246Z,69.98
2019-03-25T04:31:23.201Z,75.15
2019-03-25T04:33:51.904Z,74.43
2019-03-25T04:36:20.714Z,75.30
2019-03-25T04:38:49.471Z,75.32
2019-03-25T04:41:18.392Z,74.09
2019-03-25T04:43:47.147Z,72.98
2019-03-25T04:46:16.079Z,73.82
2019-03-25T04:48:44.858Z,74.51
2019-03-25T04:51:13.679Z,71.65
2019-03-25T04:53:44.053Z,74.91
2019-03-25T04:56:12.759Z,68.78
2019-03-25T04:58:42.213Z,73.19
2019-03-25T05:01:11.067Z,72.09
2019-03-25T05:03:39.774Z,73.51
2019-03-25T05:06:08.553Z,75.19
2019-03-25T05:08:37.314Z,75.94
2019-03-25T05:11:06.114Z,75.58
2019-03-25T05:13:34.830Z,73.07
2019-03-25T05:16:03.733Z,66.99
2019-03-25T05:18:32.482Z,75.19
2019-03-25T05:21:01.310Z,75.04
2019-03-25T05:23:30.184Z,75.32
2019-03-25T05:25:58.830Z,74.64
2019-03-25T05:28:27.568Z,72.96
2019-03-25T05:30:56.507Z,73.95
2019-03-25T05:33:25.198Z,73.03
2019-03-25T05:35:53.948Z,73.92
2019-03-25T05:38:22.682Z,72.46
2019-03-25T05:40:51.438Z,72.50
2019-03-25T05:43:21.271Z,74.68
2019-03-25T05:45:50.866Z,74.39
2019-03-25T05:48:19.671Z,73.86
2019-03-25T05:50:48.328Z,74.31
2019-03-25T05:53:17.076Z,70.48
2019-03-25T05:55:45.757Z,73.86
2019-03-25T05:58:14.785Z,72.57
2019-03-25T06:00:43.897Z,69.96
2019-03-25T06:03:12.691Z,70.83
2019-03-25T06:05:41.477Z,73.73
2019-03-25T06:08:10.263Z,74.78
2019-03-25T06:10:38.986Z,74.22
2019-03-25T06:13:07.673Z,74.06
2019-03-25T06:15:36.449Z,72.15
2019-03-25T06:18:05.245Z,72.07
2019-03-25T06:20:34.243Z,69.67
2019-03-25T06:23:02.931Z,70.65
2019-03-25T06:25:31.573Z,73.66
2019-03-25T06:28:00.271Z,71.64
2019-03-25T06:30:29.116Z,72.47
2019-03-25T06:32:57.974Z,72.45
2019-03-25T06:35:26.934Z,73.13
2019-03-25T06:37:55.635Z,71.10
2019-03-25T06:40:24.329Z,69.95
2019-03-25T06:42:53.141Z,71.10
2019-03-25T06:45:21.807Z,68.99
2019-03-25T06:47:50.536Z,70.91
2019-03-25T06:50:19.208Z,71.16
2019-03-25T06:52:47.876Z,65.71
2019-03-25T06:55:16.579Z,69.20
2019-03-25T06:57:45.258Z,68.97
2019-03-25T07:00:15.689Z,68.79
2019-03-25T07:02:44.407Z,68.18
2019-03-25T07:05:19.611Z,67.59
2019-03-25T07:07:48.300Z,68.61
2019-03-25T07:10:30.693Z,67.72
2019-03-25T07:12:59.997Z,68.33
2019-03-25T07:15:29.704Z,68.90
2019-03-25T07:17:58.548Z,65.86
2019-03-25T07:20:27.287Z,67.96
2019-03-25T07:22:56.149Z,67.75
2019-03-25T07:25:25.093Z,67.19
2019-03-25T07:27:53.837Z,68.90
2019-03-25T07:30:22.508Z,67.17
2019-03-25T07:32:51.505Z,68.11
2019-03-25T07:35:22.346Z,68.06
2019-03-25T07:37:49.591Z,68.85
2019-03-25T07:40:18.580Z,67.27
2019-03-25T07:42:47.503Z,68.74
2019-03-25T07:45:16.395Z,67.86
2019-03-25T07:47:45.088Z,69.70
2019-03-25T07:50:14.050Z,69.01
2019-03-25T07:52:42.974Z,67.18
2019-03-25T07:55:11.846Z,68.46
2019-03-25T07:57:48.065Z,67.85
2019-03-25T08:00:13.910Z,66.22
2019-03-25T08:02:42.985Z,67.04
2019-03-25T08:05:11.765Z,67.42
2019-03-25T08:07:40.480Z,66.39
2019-03-25T08:10:09.813Z,68.47
2019-03-25T08:12:38.506Z,68.00
2019-03-25T08:15:09.028Z,69.33
2019-03-25T08:17:37.677Z,65.60
2019-03-25T08:20:06.669Z,63.84
2019-03-25T08:22:35.368Z,66.26
2019-03-25T08:25:04.080Z,67.00
2019-03-25T08:27:32.772Z,65.51
2019-03-25T08:30:01.507Z,66.96
2019-03-25T08:32:30.232Z,66.72
2019-03-25T08:34:59.047Z,69.73
2019-03-25T08:37:27.825Z,70.70
2019-03-25T08:39:56.557Z,72.11
2019-03-25T08:42:25.261Z,70.81
2019-03-25T08:44:53.983Z,70.11
2019-03-25T08:47:22.671Z,69.84
2019-03-25T08:49:51.439Z,72.55
2019-03-25T08:52:20.103Z,72.03
2019-03-25T08:54:48.819Z,71.14
2019-03-25T08:57:17.538Z,70.75
2019-03-25T08:59:46.382Z,72.61
2019-03-25T09:02:15.280Z,71.78
2019-03-25T09:04:44.107Z,69.35
2019-03-25T09:07:12.812Z,71.94
2019-03-25T09:09:41.525Z,69.97
2019-03-25T09:12:10.306Z,68.40
2019-03-25T09:14:39.110Z,69.13
2019-03-25T09:17:08.099Z,66.89
2019-03-25T09:19:37.141Z,66.47
2019-03-25T09:22:08.051Z,66.41
2019-03-25T09:24:39.899Z,68.39
2019-03-25T09:27:08.716Z,66.15
2019-03-25T09:29:37.481Z,68.06
2019-03-25T09:32:06.216Z,67.72
2019-03-25T09:34:34.973Z,68.29
2019-03-25T09:37:03.752Z,68.22
2019-03-25T09:39:32.429Z,68.94
2019-03-25T09:42:01.365Z,70.62
2019-03-25T09:44:30.180Z,71.21
2019-03-25T09:46:59.005Z,67.52
2019-03-25T09:49:27.671Z,70.01
2019-03-25T09:51:56.445Z,68.12
2019-03-25T09:54:25.356Z,71.10
2019-03-25T09:56:54.193Z,68.43
2019-03-25T09:59:22.927Z,71.09
2019-03-25T10:01:51.643Z,70.31
2019-03-25T10:04:20.470Z,70.22
2019-03-25T10:06:49.308Z,68.42
2019-03-25T10:09:18.036Z,68.57
2019-03-25T10:11:46.994Z,67.58
2019-03-25T10:14:15.664Z,68.42
2019-03-25T10:16:44.499Z,70.74
2019-03-25T10:19:13.428Z,69.86
2019-03-25T10:21:42.417Z,71.32
2019-03-25T10:24:11.305Z,70.08
2019-03-25T10:26:40.234Z,69.09
2019-03-25T10:29:08.958Z,70.36
2019-03-25T10:31:38.375Z,69.99
2019-03-25T10:34:07.153Z,69.75
2019-03-25T10:36:35.967Z,68.06
2019-03-25T10:39:05.874Z,70.14
2019-03-25T10:41:34.732Z,69.99
2019-03-25T10:44:03.956Z,68.94
2019-03-25T10:46:32.717Z,70.11
2019-03-25T10:49:01.529Z,67.00
2019-03-25T10:51:30.435Z,67.98
2019-03-25T10:53:59.125Z,66.92
2019-03-25T10:56:28.031Z,65.25
2019-03-25T10:58:58.337Z,66.81
2019-03-25T11:01:27.333Z,67.56
2019-03-25T11:03:56.141Z,70.24
2019-03-25T11:06:25.035Z,69.41
2019-03-25T11:08:53.719Z,68.40
2019-03-25T11:11:22.447Z,72.20
2019-03-25T11:13:51.311Z,71.35
2019-03-25T11:16:20.180Z,69.73
2019-03-25T11:18:49.126Z,72.47
2019-03-25T11:21:18.094Z,72.72
2019-03-25T11:23:46.885Z,72.95
2019-03-25T11:26:15.842Z,66.36
2019-03-25T11:28:44.511Z,64.66
2019-03-25T11:31:13.355Z,65.79
2019-03-25T11:33:42.114Z,66.49
2019-03-25T11:36:10.922Z,64.61
2019-03-25T11:38:39.618Z,68.46
2019-03-25T11:41:08.319Z,66.27
2019-03-25T11:43:37.157Z,66.25
2019-03-25T11:46:06.328Z,65.41
2019-03-25T11:48:35.088Z,64.17
2019-03-25T11:51:04.035Z,67.00
2019-03-25T11:53:32.711Z,64.85
2019-03-25T11:56:01.665Z,64.76
2019-03-25T11:58:30.395Z,64.10
2019-03-25T12:00:59.071Z,67.66
2019-03-25T12:03:27.804Z,69.58
2019-03-25T12:05:56.605Z,69.32
2019-03-25T12:08:25.382Z,66.96
2019-03-25T12:10:54.347Z,66.20
2019-03-25T12:13:23.333Z,66.35
2019-03-25T12:15:52.115Z,65.76
2019-03-25T12:18:20.853Z,70.57
2019-03-25T12:20:49.628Z,62.71
2019-03-25T12:23:25.995Z,64.44
2019-03-25T12:25:48.866Z,63.69
2019-03-25T12:28:17.613Z,62.01
2019-03-25T12:30:46.340Z,64.78
2019-03-25T12:33:15.066Z,64.75
2019-03-25T12:35:43.925Z,61.03
2019-03-25T12:38:12.825Z,58.88
2019-03-25T12:40:41.642Z,59.17
2019-03-25T12:43:10.452Z,59.44
2019-03-25T12:45:39.332Z,55.83
2019-03-25T12:48:08.114Z,59.71
2019-03-25T12:50:37.036Z,55.55
2019-03-25T12:53:05.908Z,60.07
2019-03-25T12:55:34.816Z,54.54
2019-03-25T12:58:03.618Z,60.30
2019-03-25T13:00:51.434Z,57.37
2019-03-25T13:03:20.308Z,63.01
2019-03-25T13:05:49.111Z,67.78
2019-03-25T13:08:18.031Z,69.25
2019-03-25T13:10:46.799Z,68.88
2019-03-25T13:13:15.515Z,69.50
2019-03-25T13:15:44.353Z,68.36
2019-03-25T13:18:13.179Z,64.16
2019-03-25T13:20:41.897Z,60.41
2019-03-25T13:23:10.600Z,63.65
2019-03-25T13:25:39.754Z,63.48
2019-03-25T13:28:08.560Z,60.95
2019-03-25T13:30:37.410Z,64.73
2019-03-25T13:33:06.175Z,66.81
2019-03-25T13:35:34.948Z,64.00
2019-03-25T13:38:03.743Z,62.52
2019-03-25T13:40:32.639Z,65.49
2019-03-25T13:43:01.648Z,62.61
2019-03-25T13:45:30.624Z,64.52
2019-03-25T13:47:59.433Z,61.85
2019-03-25T13:50:28.187Z,61.61
2019-03-25T13:52:57.050Z,59.57
2019-03-25T13:55:26.746Z,55.66
2019-03-25T13:57:55.670Z,58.29
2019-03-25T14:00:43.253Z,65.90
2019-03-25T14:03:12.202Z,61.96
2019-03-25T14:05:40.956Z,54.73
2019-03-25T14:08:10.095Z,60.73
2019-03-25T14:10:39.277Z,63.78
2019-03-25T14:13:08.010Z,60.28
2019-03-25T14:15:36.790Z,60.79
2019-03-25T14:18:05.837Z,60.88
2019-03-25T14:20:34.548Z,61.49
2019-03-25T14:23:03.750Z,58.76
2019-03-25T14:25:32.593Z,62.38
2019-03-25T14:28:01.541Z,57.47
2019-03-25T14:30:30.293Z,59.92
2019-03-25T14:32:59.473Z,61.23
2019-03-25T14:35:28.233Z,58.54
2019-03-25T14:37:57.001Z,65.77
2019-03-25T14:40:26.307Z,67.22
2019-03-25T14:42:57.017Z,67.25
2019-03-25T14:45:26.949Z,63.39
2019-03-25T14:47:56.055Z,65.89
2019-03-25T14:50:25.121Z,65.51
2019-03-25T14:52:53.903Z,68.63
2019-03-25T14:55:22.725Z,64.72
2019-03-25T14:57:51.436Z,63.31
2019-03-25T15:00:25.082Z,65.44
2019-03-25T15:02:51.477Z,64.81
2019-03-25T15:05:20.245Z,66.96
2019-03-25T15:07:49.109Z,65.36
2019-03-25T15:10:17.976Z,67.57
2019-03-25T15:12:46.819Z,62.19
2019-03-25T15:15:15.683Z,62.70
2019-03-25T15:17:44.462Z,64.13
2019-03-25T15:20:14.076Z,62.59
2019-03-25T15:22:43.128Z,62.42
2019-03-25T15:25:13.676Z,62.25
2019-03-25T15:27:41.311Z,64.14
2019-03-25T15:30:11.303Z,64.95
2019-03-25T15:32:40.194Z,64.47
2019-03-25T15:35:09.560Z,64.77
2019-03-25T15:37:38.420Z,68.56
2019-03-25T15:40:09.161Z,65.56
2019-03-25T15:42:38.111Z,62.47
2019-03-25T15:45:10.120Z,66.24
2019-03-25T15:47:39.291Z,66.92
2019-03-25T15:50:08.984Z,64.97
2019-03-25T15:52:38.043Z,66.36
2019-03-25T15:55:07.430Z,64.61
2019-03-25T15:57:36.358Z,65.22
2019-03-25T16:00:06.795Z,65.93
2019-03-25T16:02:35.802Z,66.09
2019-03-25T16:05:04.637Z,66.03
2019-03-25T16:07:33.477Z,66.70
2019-03-25T16:10:03.076Z,63.29
2019-03-25T16:12:32.011Z,65.95
2019-03-25T16:15:00.771Z,65.54
2019-03-25T16:17:34.226Z,65.79
2019-03-25T16:20:03.107Z,66.16
2019-03-25T16:22:32.091Z,65.57
2019-03-25T16:25:01.139Z,65.61
2019-03-25T16:27:30.138Z,65.94
2019-03-25T16:29:59.014Z,66.98
2019-03-25T16:32:27.834Z,67.30
2019-03-25T16:34:56.713Z,67.42
2019-03-25T16:37:25.657Z,67.03
2019-03-25T16:39:54.386Z,67.51
2019-03-25T16:42:23.211Z,67.22
2019-03-25T16:44:52.007Z,66.46
2019-03-25T16:47:21.222Z,66.03
2019-03-25T16:49:50.099Z,66.89
2019-03-25T16:52:18.996Z,66.00
2019-03-25T16:54:47.949Z,65.10
2019-03-25T16:57:16.968Z,66.50
2019-03-25T16:59:45.797Z,67.31
2019-03-25T17:02:15.050Z,65.77
2019-03-25T17:04:44.097Z,65.23
2019-03-25T17:07:12.886Z,67.49
2019-03-25T17:09:41.675Z,66.04
2019-03-25T17:12:10.589Z,64.78
2019-03-25T17:14:39.494Z,65.81
2019-03-25T17:17:08.402Z,64.70
2019-03-25T17:19:37.118Z,66.75
2019-03-25T17:22:06.147Z,67.29
2019-03-25T17:24:34.973Z,65.20
2019-03-25T17:27:03.812Z,65.62
2019-03-25T17:29:32.772Z,65.47
2019-03-25T17:32:01.741Z,65.37
2019-03-25T17:34:30.581Z,66.92
2019-03-25T17:36:59.661Z,62.74
2019-03-25T17:39:28.899Z,64.64
2019-03-25T17:41:58.025Z,66.50
2019-03-25T17:44:26.820Z,64.22
2019-03-25T17:46:55.596Z,65.78
2019-03-25T17:49:24.647Z,67.35
2019-03-25T17:51:53.358Z,63.18
2019-03-25T17:54:22.457Z,67.73
2019-03-25T17:56:51.226Z,68.00
2019-03-25T17:59:20.442Z,64.91
2019-03-25T18:01:49.644Z,67.63
2019-03-25T18:04:19.491Z,66.38
2019-03-25T18:06:48.286Z,66.63
2019-03-25T18:09:17.447Z,67.53
2019-03-25T18:11:46.664Z,68.62
2019-03-25T18:14:15.432Z,69.22
2019-03-25T18:16:44.430Z,69.18
2019-03-25T18:19:13.591Z,68.43
2019-03-25T18:21:42.468Z,65.69
2019-03-25T18:24:11.355Z,69.30
2019-03-25T18:26:40.201Z,69.55
2019-03-25T18:29:09.397Z,68.21
2019-03-25T18:31:43.468Z,69.45
2019-03-25T18:34:07.898Z,63.59
2019-03-25T18:36:36.989Z,64.51
2019-03-25T18:39:08.270Z,67.90
2019-03-25T18:41:38.451Z,69.38
2019-03-25T18:44:08.226Z,63.36
2019-03-25T18:46:38.480Z,61.32
2019-03-25T18:49:08.335Z,61.54
2019-03-25T18:51:41.689Z,63.29
2019-03-25T18:54:11.394Z,68.80
2019-03-25T18:56:41.581Z,68.95
2019-03-25T18:59:11.472Z,67.35
2019-03-25T19:01:54.100Z,68.70
2019-03-25T19:04:14.660Z,68.99
2019-03-25T19:06:49.916Z,67.56
2019-03-25T19:09:19.848Z,62.95
2019-03-25T19:11:49.297Z,66.59
2019-03-25T19:14:18.275Z,66.51
2019-03-25T19:16:47.787Z,63.78
2019-03-25T19:19:17.088Z,68.28
2019-03-25T19:21:46.498Z,67.79
2019-03-25T19:24:15.542Z,66.37
2019-03-25T19:26:45.263Z,66.85
2019-03-25T19:29:15.687Z,68.80
2019-03-25T19:31:45.516Z,68.33
2019-03-25T19:34:14.440Z,68.54
2019-03-25T19:36:44.932Z,68.54
2019-03-25T19:39:13.157Z,68.31
2019-03-25T19:41:42.290Z,67.16
2019-03-25T19:44:12.076Z,68.74
2019-03-25T19:46:41.457Z,69.40
2019-03-25T19:49:11.328Z,69.39
2019-03-25T19:51:40.705Z,67.27
2019-03-25T19:54:10.146Z,69.22
2019-03-25T19:56:39.556Z,69.87
2019-03-25T19:59:09.055Z,68.28
2019-03-25T20:01:37.995Z,69.60
2019-03-25T20:04:08.263Z,69.58
2019-03-25T20:06:38.082Z,66.82
2019-03-25T20:09:09.478Z,66.14
2019-03-25T20:11:39.397Z,70.25
2019-03-25T20:14:08.952Z,68.76
2019-03-25T20:16:38.412Z,69.42
2019-03-25T20:19:07.989Z,68.90
2019-03-25T20:21:37.222Z,68.33
2019-03-25T20:24:06.749Z,66.54
2019-03-25T20:26:36.359Z,67.58
2019-03-25T20:29:06.652Z,68.87
2019-03-25T20:31:35.907Z,69.66
2019-03-25T20:34:10.961Z,69.78
2019-03-25T20:36:37.101Z,70.43
2019-03-25T20:39:10.982Z,70.89
2019-03-25T20:41:40.600Z,69.61
2019-03-25T20:44:11.019Z,69.48
2019-03-25T20:46:40.411Z,70.23
2019-03-25T20:49:09.668Z,70.33
2019-03-25T20:51:39.377Z,69.26
2019-03-25T20:54:09.248Z,69.75
2019-03-25T20:56:38.603Z,69.02
2019-03-25T20:59:08.230Z,71.07
2019-03-25T21:01:38.084Z,68.98
2019-03-25T21:04:07.898Z,71.60
2019-03-25T21:06:37.424Z,67.41
2019-03-25T21:09:08.082Z,68.91
2019-03-25T21:11:35.783Z,71.42
2019-03-25T21:14:04.776Z,71.78
2019-03-25T21:16:34.395Z,72.30
2019-03-25T21:19:03.666Z,71.24
2019-03-25T21:21:32.739Z,72.66
2019-03-25T21:24:01.652Z,72.03
2019-03-25T21:26:30.730Z,71.23
2019-03-25T21:29:00.173Z,72.66
2019-03-25T21:31:29.409Z,67.52
2019-03-25T21:33:58.903Z,72.57
2019-03-25T21:36:27.841Z,67.71
2019-03-25T21:38:56.917Z,72.55
2019-03-25T21:41:25.759Z,71.29
2019-03-25T21:43:54.729Z,70.27
2019-03-25T21:46:23.858Z,67.86
2019-03-25T21:48:52.550Z,73.20
2019-03-25T21:51:21.648Z,73.14
2019-03-25T21:53:53.021Z,73.85
2019-03-25T21:56:19.707Z,72.34
2019-03-25T21:58:48.657Z,72.46
2019-03-25T22:01:17.550Z,69.56
2019-03-25T22:03:46.307Z,71.20
2019-03-25T22:06:15.042Z,73.63
2019-03-25T22:11:19.447Z,70.42
2019-03-25T22:13:48.207Z,71.44
2019-03-25T22:16:17.428Z,74.13
2019-03-25T22:18:46.189Z,72.33
2019-03-25T22:21:15.643Z,67.06
2019-03-25T22:23:47.410Z,73.71
2019-03-25T22:26:16.187Z,73.19
2019-03-25T22:28:44.985Z,73.42
2019-03-25T22:31:13.691Z,74.76
2019-03-25T22:33:44.491Z,74.94
2019-03-25T22:36:13.252Z,74.60
2019-03-25T22:38:42.012Z,74.88
2019-03-25T22:41:10.739Z,73.54
2019-03-25T22:43:39.793Z,74.25
2019-03-25T22:46:08.551Z,74.25
2019-03-25T22:48:37.333Z,71.45
2019-03-25T22:51:06.412Z,73.81
2019-03-25T22:53:35.464Z,75.70
2019-03-25T22:56:04.353Z,75.57
2019-03-25T22:58:33.161Z,71.56
2019-03-25T23:01:06.168Z,75.06
2019-03-25T23:03:39.348Z,74.84
2019-03-25T23:06:04.215Z,73.46
2019-03-25T23:08:33.189Z,75.18
2019-03-25T23:11:01.885Z,68.78
2019-03-25T23:13:30.635Z,75.51
2019-03-25T23:15:59.425Z,75.80
2019-03-25T23:18:28.265Z,67.33
2019-03-25T23:20:57.139Z,70.28
2019-03-25T23:23:25.777Z,73.77
2019-03-25T23:25:54.719Z,71.66
2019-03-25T23:28:23.697Z,74.54
2019-03-25T23:30:52.497Z,74.81
2019-03-25T23:33:21.188Z,74.36
2019-03-25T23:35:49.873Z,74.40
2019-03-25T23:38:19.916Z,74.52
2019-03-25T23:40:48.624Z,74.25
2019-03-25T23:43:17.600Z,73.14
2019-03-25T23:45:46.282Z,71.50
2019-03-25T23:48:15.005Z,71.51
2019-03-25T23:50:43.830Z,65.55
2019-03-25T23:53:12.650Z,71.87
2019-03-25T23:55:41.439Z,71.92
2019-03-25T23:58:10.304Z,74.05
